createdAt,value
2023-02-03T00:02:25.663Z,9.40
2023-02-03T00:06:07.994Z,9.40
2023-02-03T00:09:50.221Z,9.40
2023-02-03T00:13:32.240Z,9.30
2023-02-03T00:17:15.359Z,9.30
2023-02-03T00:20:57.335Z,9.30
2023-02-03T00:24:39.354Z,9.30
2023-02-03T00:28:21.333Z,9.20
2023-02-03T00:32:03.414Z,9.20
2023-02-03T00:35:45.464Z,9.20
2023-02-03T00:39:27.468Z,9.10
2023-02-03T00:43:09.421Z,9.10
2023-02-03T00:46:51.520Z,9.10
2023-02-03T00:50:33.594Z,9.10
2023-02-03T00:54:15.615Z,9.10
2023-02-03T00:57:57.610Z,9.10
2023-02-03T01:01:39.527Z,9.10
2023-02-03T01:05:21.501Z,9.10
2023-02-03T01:09:03.612Z,9.10
2023-02-03T01:12:45.664Z,9.10
2023-02-03T01:16:29.944Z,9.10
2023-02-03T01:20:13.937Z,9.10
2023-02-03T01:23:56.134Z,9.20
2023-02-03T01:27:38.183Z,9.20
2023-02-03T01:31:24.063Z,9.20
2023-02-03T01:35:06.427Z,9.20
2023-02-03T01:38:48.648Z,9.30
2023-02-03T01:42:33.985Z,9.30
2023-02-03T01:46:34.592Z,9.30
2023-02-03T01:50:22.730Z,9.40
2023-02-03T01:54:07.300Z,9.40
2023-02-03T01:57:59.009Z,9.50
2023-02-03T02:01:45.090Z,9.50
2023-02-03T02:05:41.146Z,9.50
2023-02-03T02:09:24.195Z,9.50
2023-02-03T02:13:06.843Z,9.60
2023-02-03T02:17:26.325Z,9.60
2023-02-03T02:21:55.895Z,9.70
2023-02-03T02:26:02.584Z,9.70
2023-02-03T02:29:56.583Z,9.70
2023-02-03T02:33:56.996Z,9.70
2023-02-03T02:37:54.815Z,9.60
2023-02-03T02:41:56.758Z,9.60
2023-02-03T02:46:02.073Z,9.60
2023-02-03T02:49:52.725Z,9.60
2023-02-03T02:53:40.200Z,9.60
2023-02-03T02:57:26.196Z,9.60
2023-02-03T03:01:09.831Z,9.60
2023-02-03T03:04:52.628Z,9.60
2023-02-03T03:08:44.531Z,9.60
2023-02-03T03:12:36.329Z,9.60
2023-02-03T03:16:23.483Z,9.60
2023-02-03T03:20:13.129Z,9.60
2023-02-03T03:23:59.782Z,9.70
2023-02-03T03:27:48.533Z,9.70
2023-02-03T03:31:31.110Z,9.70
2023-02-03T03:35:13.328Z,9.70
2023-02-03T03:39:13.539Z,9.70
2023-02-03T03:43:08.023Z,9.70
2023-02-03T03:46:59.523Z,9.70
2023-02-03T03:50:52.743Z,9.70
2023-02-03T03:54:37.528Z,9.60
2023-02-03T03:58:32.311Z,9.60
2023-02-03T04:02:16.286Z,9.60
2023-02-03T04:05:58.343Z,9.70
2023-02-03T04:09:42.976Z,9.70
2023-02-03T04:13:24.922Z,9.70
2023-02-03T04:17:06.960Z,9.70
2023-02-03T04:20:48.995Z,9.70
2023-02-03T04:24:30.973Z,9.70
2023-02-03T04:28:13.001Z,9.70
2023-02-03T04:31:55.062Z,9.70
2023-02-03T04:35:37.744Z,9.70
2023-02-03T04:39:19.699Z,9.70
2023-02-03T04:43:07.437Z,9.60
2023-02-03T04:46:49.405Z,9.60
2023-02-03T04:50:31.999Z,9.60
2023-02-03T04:54:13.975Z,9.60
2023-02-03T04:57:57.305Z,9.60
2023-02-03T05:01:39.286Z,9.70
2023-02-03T05:05:21.778Z,9.70
2023-02-03T05:09:04.309Z,9.60
2023-02-03T05:12:46.313Z,9.70
2023-02-03T05:16:28.305Z,9.70
2023-02-03T05:20:10.986Z,9.80
2023-02-03T05:23:53.047Z,9.80
2023-02-03T05:27:35.110Z,9.70
2023-02-03T05:31:17.222Z,9.80
2023-02-03T05:34:59.241Z,9.70
2023-02-03T05:38:42.542Z,9.60
2023-02-03T05:42:24.514Z,9.60
2023-02-03T05:46:07.761Z,9.50
2023-02-03T05:49:49.721Z,9.40
2023-02-03T05:53:31.684Z,9.40
2023-02-03T05:57:13.607Z,9.40
2023-02-03T06:00:55.559Z,9.40
2023-02-03T06:04:41.312Z,9.50
2023-02-03T06:08:23.305Z,9.50
2023-02-03T06:12:05.515Z,9.60
2023-02-03T06:15:47.477Z,9.60
2023-02-03T06:19:29.397Z,9.70
2023-02-03T06:23:11.615Z,9.70
2023-02-03T06:26:53.532Z,9.80
2023-02-03T06:30:35.515Z,9.80
2023-02-03T06:34:17.547Z,9.80
2023-02-03T06:37:59.528Z,9.80
2023-02-03T06:41:41.446Z,9.90
2023-02-03T06:45:25.124Z,9.90
2023-02-03T06:49:07.129Z,9.90
2023-02-03T06:52:50.379Z,9.90
2023-02-03T06:56:32.302Z,10.00
2023-02-03T07:00:18.795Z,10.00
2023-02-03T07:04:01.151Z,10.00
2023-02-03T07:07:43.123Z,10.00
2023-02-03T07:11:25.685Z,9.90
2023-02-03T07:15:08.242Z,9.80
2023-02-03T07:18:50.355Z,9.70
2023-02-03T07:22:32.344Z,9.60
2023-02-03T07:26:14.674Z,9.50
2023-02-03T07:29:56.662Z,9.40
2023-02-03T07:33:39.312Z,9.30
2023-02-03T07:37:21.343Z,9.30
2023-02-03T07:41:03.353Z,9.20
2023-02-03T07:44:45.327Z,9.20
2023-02-03T07:48:27.305Z,9.10
2023-02-03T07:52:09.280Z,9.20
2023-02-03T07:55:51.239Z,9.30
2023-02-03T07:59:33.211Z,9.40
2023-02-03T08:03:15.232Z,9.50
2023-02-03T08:06:57.186Z,9.60
2023-02-03T08:10:39.403Z,9.60
2023-02-03T08:14:21.470Z,9.70
2023-02-03T08:18:03.573Z,9.70
2023-02-03T08:21:45.578Z,9.80
2023-02-03T08:25:27.573Z,9.80
2023-02-03T08:29:11.644Z,9.90
2023-02-03T08:32:53.600Z,9.90
2023-02-03T08:36:39.358Z,10.00
2023-02-03T08:40:21.530Z,10.00
2023-02-03T08:44:03.718Z,10.10
2023-02-03T08:47:45.869Z,10.10
2023-02-03T08:51:27.838Z,10.10
2023-02-03T08:55:09.941Z,10.10
2023-02-03T08:58:53.864Z,10.20
2023-02-03T09:02:37.010Z,10.20
2023-02-03T09:06:20.749Z,10.20
2023-02-03T09:10:04.771Z,10.30
2023-02-03T09:13:46.886Z,10.30
2023-02-03T09:17:28.867Z,10.40
2023-02-03T09:21:15.975Z,10.40
2023-02-03T09:25:09.613Z,10.50
2023-02-03T09:28:52.845Z,10.50
2023-02-03T09:32:34.830Z,10.50
2023-02-03T09:36:17.083Z,10.50
2023-02-03T09:39:59.587Z,10.60
2023-02-03T09:43:44.634Z,10.60
2023-02-03T09:47:35.969Z,10.60
2023-02-03T09:51:23.579Z,10.70
2023-02-03T09:55:20.174Z,10.80
2023-02-03T09:59:03.463Z,10.80
2023-02-03T10:03:08.355Z,10.90
2023-02-03T10:06:52.307Z,10.90
2023-02-03T10:10:35.158Z,10.90
2023-02-03T10:14:29.056Z,11.00
2023-02-03T10:18:17.048Z,11.10
2023-02-03T10:22:00.359Z,11.20
2023-02-03T10:25:49.805Z,11.40
2023-02-03T10:29:37.990Z,11.50
2023-02-03T10:33:20.376Z,11.50
2023-02-03T10:37:11.043Z,11.50
2023-02-03T10:40:53.442Z,11.50
2023-02-03T10:44:39.720Z,11.50
2023-02-03T10:48:23.291Z,11.50
2023-02-03T10:52:05.538Z,11.60
2023-02-03T10:55:51.539Z,11.70
2023-02-03T10:59:39.895Z,11.70
2023-02-03T11:03:28.576Z,11.80
2023-02-03T11:07:26.283Z,11.80
2023-02-03T11:11:13.215Z,11.80
2023-02-03T11:14:55.225Z,11.90
2023-02-03T11:18:45.887Z,11.90
2023-02-03T11:22:31.924Z,11.90
2023-02-03T11:26:16.279Z,11.90
2023-02-03T11:30:30.399Z,12.00
2023-02-03T11:34:19.064Z,12.00
2023-02-03T11:38:02.165Z,12.10
2023-02-03T11:41:44.753Z,12.20
2023-02-03T11:45:28.217Z,12.30
2023-02-03T11:49:36.647Z,12.30
2023-02-03T11:53:51.231Z,12.30
2023-02-03T11:57:50.348Z,12.30
2023-02-03T12:02:02.455Z,12.20
2023-02-03T12:06:05.030Z,12.20
2023-02-03T12:10:11.289Z,12.20
2023-02-03T12:14:13.529Z,12.40
2023-02-03T12:18:05.796Z,12.50
2023-02-03T12:21:54.487Z,12.60
2023-02-03T12:25:43.977Z,12.60
2023-02-03T12:29:37.089Z,12.80
2023-02-03T12:33:19.058Z,12.90
2023-02-03T12:37:18.158Z,13.10
2023-02-03T12:41:01.860Z,13.50
2023-02-03T12:44:56.214Z,13.70
2023-02-03T12:48:41.237Z,13.60
2023-02-03T12:52:26.796Z,13.40
2023-02-03T12:56:22.719Z,13.20
2023-02-03T13:00:18.464Z,13.10
2023-02-03T13:04:24.954Z,13.10
2023-02-03T13:08:15.703Z,13.00
2023-02-03T13:12:12.817Z,12.90
2023-02-03T13:15:56.482Z,12.90
2023-02-03T13:19:47.916Z,12.80
2023-02-03T13:23:30.085Z,12.80
2023-02-03T13:27:30.816Z,12.80
2023-02-03T13:31:13.408Z,13.00
2023-02-03T13:35:04.105Z,13.40
2023-02-03T13:39:07.183Z,13.60
2023-02-03T13:42:56.531Z,13.70
2023-02-03T13:46:39.607Z,13.80
2023-02-03T13:50:28.656Z,14.00
2023-02-03T13:54:33.207Z,14.20
2023-02-03T13:58:25.415Z,14.30
2023-02-03T14:02:19.710Z,14.30
2023-02-03T14:06:03.191Z,14.10
2023-02-03T14:09:47.133Z,13.90
2023-02-03T14:13:30.409Z,13.70
2023-02-03T14:17:44.485Z,13.60
2023-02-03T14:21:28.318Z,13.50
2023-02-03T14:25:10.367Z,13.40
2023-02-03T14:28:53.931Z,13.30
2023-02-03T14:32:56.217Z,13.30
2023-02-03T14:36:44.879Z,13.20
2023-02-03T14:40:35.796Z,13.10
2023-02-03T14:44:48.866Z,13.00
2023-02-03T14:48:33.886Z,12.80
2023-02-03T14:52:28.845Z,12.70
2023-02-03T14:57:03.810Z,12.70
2023-02-03T15:00:46.144Z,12.70
2023-02-03T15:04:28.385Z,12.70
2023-02-03T15:08:36.686Z,12.60
2023-02-03T15:12:26.959Z,12.60
2023-02-03T15:16:15.295Z,12.60
2023-02-03T15:19:57.408Z,12.60
2023-02-03T15:23:43.345Z,12.50
2023-02-03T15:27:27.660Z,12.50
2023-02-03T15:31:18.147Z,12.50
2023-02-03T15:35:03.280Z,12.40
2023-02-03T15:38:50.510Z,12.40
2023-02-03T15:42:41.091Z,12.30
2023-02-03T15:46:33.321Z,12.20
2023-02-03T15:50:34.326Z,12.20
2023-02-03T15:54:25.068Z,12.10
2023-02-03T15:58:14.640Z,12.10
2023-02-03T16:01:57.155Z,12.00
2023-02-03T16:05:39.371Z,11.90
2023-02-03T16:09:30.814Z,11.90
2023-02-03T16:13:25.349Z,11.80
2023-02-03T16:17:29.353Z,11.70
2023-02-03T16:21:30.290Z,11.70
2023-02-03T16:25:17.921Z,11.60
2023-02-03T16:29:29.992Z,11.60
2023-02-03T16:33:34.709Z,11.50
2023-02-03T16:37:46.878Z,11.40
2023-02-03T16:41:47.070Z,11.40
2023-02-03T16:45:47.739Z,11.30
2023-02-03T16:49:48.467Z,11.20
2023-02-03T16:53:32.710Z,11.20
2023-02-03T16:57:14.684Z,11.10
2023-02-03T17:01:00.222Z,11.00
2023-02-03T17:04:42.566Z,11.00
2023-02-03T17:08:26.362Z,11.00
2023-02-03T17:12:08.387Z,10.90
2023-02-03T17:15:54.865Z,10.90
2023-02-03T17:19:36.951Z,10.80
2023-02-03T17:23:19.035Z,10.80
2023-02-03T17:27:01.053Z,10.70
2023-02-03T17:30:43.479Z,10.60
2023-02-03T17:34:25.607Z,10.50
2023-02-03T17:38:07.848Z,10.50
2023-02-03T17:53:50.700Z,10.40
2023-02-03T17:57:34.549Z,10.40
2023-02-03T18:01:19.359Z,10.30
2023-02-03T18:05:01.492Z,10.30
2023-02-03T18:08:44.081Z,10.30
2023-02-03T18:12:26.155Z,10.30
2023-02-03T18:16:10.282Z,10.30
2023-02-03T18:19:56.136Z,10.20
2023-02-03T18:23:39.558Z,10.20
2023-02-03T18:27:21.935Z,10.30
2023-02-03T18:31:12.737Z,10.20
2023-02-03T18:34:56.679Z,10.20
2023-02-03T18:38:41.041Z,10.20
2023-02-03T18:42:23.204Z,10.20
2023-02-03T18:46:13.746Z,10.20
2023-02-03T18:49:55.755Z,10.20
2023-02-03T18:53:38.494Z,10.20
2023-02-03T18:57:22.641Z,10.20
2023-02-03T19:01:05.075Z,10.20
2023-02-03T19:04:47.215Z,10.20
2023-02-03T19:08:29.252Z,10.20
2023-02-03T19:12:12.008Z,10.20
2023-02-03T19:15:54.111Z,10.20
2023-02-03T19:19:36.670Z,10.20
2023-02-03T19:23:18.711Z,10.20
2023-02-03T19:27:00.753Z,10.20
2023-02-03T19:30:42.870Z,10.10
2023-02-03T19:34:26.919Z,10.10
2023-02-03T19:38:09.858Z,10.10
2023-02-03T19:41:52.074Z,10.00
2023-02-03T19:45:34.111Z,10.00
2023-02-03T19:49:16.294Z,10.00
2023-02-03T19:52:58.257Z,10.10
2023-02-03T19:56:40.397Z,10.00
2023-02-03T20:00:22.408Z,10.10
2023-02-03T20:04:05.065Z,10.10
2023-02-03T20:07:49.203Z,10.10
2023-02-03T20:11:31.217Z,10.10
2023-02-03T20:15:13.246Z,10.10
2023-02-03T20:18:56.355Z,10.10
2023-02-03T20:22:38.351Z,10.10
2023-02-03T20:26:20.375Z,10.10
2023-02-03T20:30:03.070Z,10.10
2023-02-03T20:33:45.044Z,10.10
2023-02-03T20:37:27.188Z,10.00
2023-02-03T20:41:12.795Z,10.10
2023-02-03T20:44:55.357Z,10.00
2023-02-03T20:48:37.322Z,10.00
2023-02-03T20:52:21.559Z,10.00
2023-02-03T20:56:11.942Z,9.90
2023-02-03T20:59:54.106Z,9.80
2023-02-03T21:03:54.834Z,9.80
2023-02-03T21:07:36.791Z,9.80
2023-02-03T21:11:23.222Z,9.80
2023-02-03T21:15:23.420Z,9.70
2023-02-03T21:19:10.408Z,9.70
2023-02-03T21:22:53.330Z,9.70
2023-02-03T21:26:35.695Z,9.70
2023-02-03T21:30:31.060Z,9.70
2023-02-03T21:34:32.079Z,9.60
2023-02-03T21:38:33.193Z,9.50
2023-02-03T21:42:43.172Z,9.50
2023-02-03T21:46:26.468Z,9.40
2023-02-03T21:50:32.772Z,9.40
2023-02-03T21:54:27.399Z,9.40
2023-02-03T21:58:32.470Z,9.40
2023-02-03T22:02:54.676Z,9.40
2023-02-03T22:06:54.119Z,9.40
2023-02-03T22:10:36.104Z,9.30
2023-02-03T22:14:20.926Z,9.30
2023-02-03T22:18:02.873Z,9.30
2023-02-03T22:21:45.203Z,9.40
2023-02-03T22:25:27.251Z,9.30
2023-02-03T22:29:09.236Z,9.30
2023-02-03T22:32:51.229Z,9.30
2023-02-03T22:36:33.277Z,9.20
2023-02-03T22:40:15.320Z,9.20
2023-02-03T22:43:57.290Z,9.20
2023-02-03T22:47:39.404Z,9.10
2023-02-03T22:51:21.401Z,9.10
2023-02-03T22:55:04.411Z,9.20
2023-02-03T22:58:46.452Z,9.10
2023-02-03T23:02:28.430Z,9.10
2023-02-03T23:06:11.617Z,9.00
2023-02-03T23:09:53.651Z,9.00
2023-02-03T23:13:35.658Z,9.00
2023-02-03T23:17:18.126Z,9.00
2023-02-03T23:21:00.131Z,9.00
2023-02-03T23:24:42.351Z,8.90
2023-02-03T23:28:24.504Z,8.90
2023-02-03T23:32:07.337Z,8.90
2023-02-03T23:35:50.245Z,9.00
2023-02-03T23:39:32.182Z,8.90
2023-02-03T23:43:14.924Z,8.90
2023-02-03T23:46:56.883Z,8.90
2023-02-03T23:50:38.909Z,8.90
2023-02-03T23:54:20.841Z,8.90
2023-02-03T23:58:02.940Z,8.90
